Latest Coastal Weather Observations for Legendre Island

IDW60701

Issued at 1:12 pm WST Friday 31 July 2015 (issued every 10 minutes, with the page automatically refreshed every 10 minutes)

About coastal observations | Map of coastal stations | Coastal observations for WA | Marine services | Other Formats
Station Details ID: 004095 Name: LEGENDRE ISLAND Lat: -20.36 Lon: 116.84 Height: 29.0 m
Data from the previous 72 hours. | See also: Recent months at Legendre Island
Date/Time
WST
Temp

°C
Wind Pressure Rain
since 9am
mm
Weather Cloud Vis
km
Sea
Height
m
Swell
Dir
 
Speed
knots
Gust
knots
hPa Trend Height
m
Period
s
Dir
31/01:00pm 25.6 N 8 9 1015.9 - - - - - - - - -
31/12:30pm 26.1 N 7 9 1016.3 - - - - - - - - -
31/12:00pm 25.2 N 8 10 1016.6 - - - - - - - - -
31/11:30am 25.5 NNE 9 11 1016.9 - - - - - - - - -
31/11:00am 26.2 NE 6 10 1017.1 - - - - - - - - -
31/10:30am 26.0 S 4 6 1017.4 - - - - - - - - -
31/10:00am 25.1 SSW 6 8 1017.7 - - - - - - - - -
31/09:30am 23.3 SSW 7 8 1017.8 - - - - - - - - -
31/09:00am 22.3 SSW 5 6 1017.6 - - - - - - - - -
31/08:30am 21.2 SSW 5 7 1017.3 - - - - - - - - -
31/08:00am 20.1 S 6 7 1017.0 - - - - - - - - -
31/07:30am 19.2 SSW 8 9 1016.7 - - - - - - - - -
31/07:00am 18.4 SSW 9 9 1016.4 - - - - - - - - -
31/06:30am 18.2 SSW 8 9 1016.3 - - - - - - - - -
31/06:00am 18.7 SSW 7 8 1016.3 - - - - - - - - -
31/05:30am 18.3 S 7 8 1016.2 - - - - - - - - -
31/05:00am 18.6 S 3 4 1016.2 - - - - - - - - -
31/04:30am 19.0 SSE 3 3 1016.2 - - - - - - - - -
31/04:00am 19.9 SE 3 4 1016.4 - - - - - - - - -
31/03:30am 19.5 SSE 4 5 1016.5 - - - - - - - - -
31/03:00am 18.9 S 6 8 1016.6 - - - - - - - - -
31/02:30am 19.9 S 7 11 1016.8 - - - - - - - - -
31/02:00am 21.1 CALM 0 0 1017.0 - - - - - - - - -
31/01:30am 20.9 CALM 0 0 1017.4 - - - - - - - - -
31/01:00am 21.2 CALM 0 0 1017.8 - - - - - - - - -
31/12:30am 21.1 CALM 0 0 1018.2 - - - - - - - - -
31/12:00am 21.1 CALM 0 0 1018.3 - - - - - - - - -
 
Date/Time
WST
Temp

°C
Wind Pressure Rain
since 9am
mm
Weather Cloud Vis
km
Sea
Height
m
Swell
Dir
 
Speed
knots
Gust
knots
hPa Trend Height
m
Period
s
Dir
30/11:30pm 20.9 S 2 3 1018.5 - - - - - - - - -
30/11:00pm 20.8 SSW 3 4 1018.6 - - - - - - - - -
30/10:30pm 21.0 ESE 4 4 1018.7 - - - - - - - - -
30/10:00pm 21.8 NE 4 5 1018.5 - - - - - - - - -
30/09:30pm 21.7 NE 4 5 1018.5 - - - - - - - - -
30/09:00pm 21.6 NE 5 5 1018.4 - - - - - - - - -
30/08:30pm 21.6 NE 4 5 1018.5 - - - - - - - - -
30/08:00pm 21.9 ENE 4 4 1018.4 - - - - - - - - -
30/07:30pm 22.3 ENE 3 3 1018.1 - - - - - - - - -
30/07:00pm 22.2 ENE 2 3 1018.0 - - - - - - - - -
30/06:30pm 22.5 ENE 4 4 1017.7 - - - - - - - - -
30/06:00pm 22.7 ENE 5 5 1017.7 - - - - - - - - -
30/05:30pm 23.2 ENE 6 7 1017.6 - - - - - - - - -
30/05:00pm 23.6 ENE 8 9 1017.3 - - - - - - - - -
30/04:30pm 24.3 ENE 8 9 1017.2 - - - - - - - - -
30/04:00pm 24.5 ENE 8 9 1017.2 - - - - - - - - -
30/03:30pm 25.1 ENE 9 9 1017.3 - - - - - - - - -
30/03:00pm 25.0 E 7 8 1017.5 - - - - - - - - -
30/02:30pm 25.2 E 9 10 1017.7 - - - - - - - - -
30/02:00pm 25.1 E 10 11 1017.9 - - - - - - - - -
30/01:30pm 25.2 E 10 11 1018.3 - - - - - - - - -
30/01:00pm 25.3 E 10 11 1018.6 - - - - - - - - -
30/12:30pm 25.3 E 9 10 1019.0 - - - - - - - - -
30/12:00pm 25.0 E 9 10 1019.5 - - - - - - - - -
30/11:30am 25.2 ESE 9 10 1019.9 - - - - - - - - -
30/11:00am 25.3 E 9 10 1020.1 - - - - - - - - -
30/10:30am 24.9 E 10 11 1020.3 - - - - - - - - -
30/10:00am 25.0 ESE 11 13 1020.4 - - - - - - - - -
30/09:30am 24.6 E 9 11 1020.1 - - - - - - - - -
30/09:00am 23.9 ESE 9 11 1020.0 - - - - - - - - -
30/08:30am 23.5 ESE 7 8 1019.7 - - - - - - - - -
30/08:00am 22.7 ESE 7 9 1019.3 - - - - - - - - -
30/07:30am 21.7 ESE 7 9 1018.8 - - - - - - - - -
30/07:00am 20.9 E 6 7 1018.4 - - - - - - - - -
30/06:30am 20.2 ESE 8 9 1018.2 - - - - - - - - -
30/06:00am 19.4 SE 10 10 1017.8 - - - - - - - - -
30/05:30am 19.7 SE 8 9 1017.6 - - - - - - - - -
30/05:00am 19.4 SSE 10 10 1017.5 - - - - - - - - -
30/04:30am 19.4 SSE 10 11 1017.3 - - - - - - - - -
30/04:00am 19.3 SSE 10 11 1017.5 - - - - - - - - -
30/03:30am 19.4 SSE 9 9 1017.7 - - - - - - - - -
30/03:00am 19.6 S 8 10 1017.9 - - - - - - - - -
30/02:30am 19.8 SSE 8 9 1018.0 - - - - - - - - -
30/02:00am 20.0 S 9 12 1018.1 - - - - - - - - -
30/01:30am 21.1 ESE 5 6 1018.1 - - - - - - - - -
30/01:00am 20.5 ESE 5 7 1018.5 - - - - - - - - -
30/12:30am 20.3 ESE 5 5 1018.6 - - - - - - - - -
30/12:00am 20.5 ESE 5 6 1018.5 - - - - - - - - -
 
Date/Time
WST
Temp

°C
Wind Pressure Rain
since 9am
mm
Weather Cloud Vis
km
Sea
Height
m
Swell
Dir
 
Speed
knots
Gust
knots
hPa Trend Height
m
Period
s
Dir
29/11:30pm 20.7 ESE 5 5 1018.8 - - - - - - - - -
29/11:00pm 21.4 ESE 5 6 1018.9 - - - - - - - - -
29/10:30pm 22.2 NE 4 5 1018.8 - - - - - - - - -
29/10:00pm 22.5 N 5 6 1018.8 - - - - - - - - -
29/09:30pm 22.4 NNE 6 7 1018.9 - - - - - - - - -
29/09:00pm 22.5 N 7 8 1018.8 - - - - - - - - -
29/08:30pm 22.4 N 7 7 1018.9 - - - - - - - - -
29/08:00pm 22.3 NNE 6 7 1018.8 - - - - - - - - -
29/07:30pm 22.3 NNE 6 7 1018.6 - - - - - - - - -
29/07:00pm 22.3 NE 6 7 1018.3 - - - - - - - - -
29/06:30pm 22.5 NE 6 6 1018.0 - - - - - - - - -
29/06:00pm 22.7 NE 6 7 1017.7 - - - - - - - - -
29/05:30pm 23.1 NE 5 6 1017.5 - - - - - - - - -
29/05:00pm 23.6 NE 6 6 1017.5 - - - - - - - - -
29/04:30pm 23.9 NE 7 8 1017.5 - - - - - - - - -
29/04:00pm 24.4 ENE 7 8 1017.4 - - - - - - - - -
29/03:30pm 24.7 ENE 7 8 1017.5 - - - - - - - - -
29/03:00pm 25.1 ENE 8 9 1017.6 - - - - - - - - -
29/02:30pm 25.2 E 9 10 1017.9 - - - - - - - - -
29/02:00pm 25.2 E 9 11 1017.9 - - - - - - - - -
29/01:30pm 25.0 E 10 11 1018.1 - - - - - - - - -
29/01:00pm 25.9 E 11 13 1018.7 - - - - - - - - -
29/12:30pm 25.7 ESE 10 11 1019.1 - - - - - - - - -
29/12:00pm 25.5 E 10 11 1019.5 - - - - - - - - -
29/11:30am 25.8 ESE 10 12 1019.9 - - - - - - - - -
29/11:00am 25.3 E 6 7 1020.2 - - - - - - - - -
29/10:30am 24.9 E 7 8 1020.4 - - - - - - - - -
29/10:00am 25.2 E 6 7 1020.4 - - - - - - - - -
29/09:30am 24.2 ESE 4 6 1020.4 - - - - - - - - -
29/09:00am 24.1 E 3 4 1020.3 - - - - - - - - -
29/08:30am 23.7 ESE 4 5 1020.2 - - - - - - - - -
29/08:00am 23.2 ESE 2 3 1019.9 - - - - - - - - -
29/07:30am 22.1 SSE 1 1 1019.7 - - - - - - - - -
29/07:00am 20.8 SSW 2 3 1019.3 - - - - - - - - -
29/06:30am 19.8 SSW 5 5 1019.0 - - - - - - - - -
29/06:00am 19.3 S 7 8 1018.7 - - - - - - - - -
29/05:30am 19.2 SSE 8 8 1018.4 - - - - - - - - -
29/05:00am 18.9 SE 8 8 1018.3 - - - - - - - - -
29/04:30am 19.7 ESE 6 6 1018.2 - - - - - - - - -
29/04:00am 19.5 ESE 6 6 1018.3 - - - - - - - - -
29/03:30am 19.7 ESE 7 8 1018.4 - - - - - - - - -
29/03:00am 19.6 ESE 7 8 1018.6 - - - - - - - - -
29/02:30am 18.8 SE 8 8 1019.0 - - - - - - - - -
29/02:00am 19.0 SE 6 8 1019.1 - - - - - - - - -
29/01:30am 19.1 SE 8 8 1019.2 - - - - - - - - -
29/01:00am 19.7 SE 10 10 1019.4 - - - - - - - - -
29/12:30am 19.3 SE 6 9 1019.6 - - - - - - - - -
29/12:00am 19.8 SE 7 9 1019.9 - - - - - - - - -
 
Date/Time
WST
Temp

°C
Wind Pressure Rain
since 9am
mm
Weather Cloud Vis
km
Sea
Height
m
Swell
Dir
 
Speed
knots
Gust
knots
hPa Trend Height
m
Period
s
Dir
28/11:30pm 19.4 SE 8 8 1020.0 - - - - - - - - -
28/11:00pm 19.6 SSE 6 7 1020.2 - - - - - - - - -
28/10:30pm 19.7 SSE 5 6 1020.3 - - - - - - - - -
28/10:00pm 20.7 SSE 4 4 1020.4 - - - - - - - - -
28/09:30pm 20.7 SE 3 4 1020.3 - - - - - - - - -
28/09:00pm 20.6 SE 2 3 1020.3 - - - - - - - - -
28/08:30pm 20.4 SE 4 4 1020.2 - - - - - - - - -
28/08:00pm 20.6 SE 4 5 1020.1 - - - - - - - - -
28/07:30pm 21.5 E 3 3 1019.9 - - - - - - - - -
28/07:00pm 21.9 ENE 4 5 1019.5 - - - - - - - - -
28/06:30pm 22.1 ENE 6 7 1019.1 - - - - - - - - -
28/06:00pm 22.3 E 8 9 1018.7 - - - - - - - - -
28/05:30pm 22.7 ENE 9 9 1018.6 - - - - - - - - -
28/05:00pm 23.4 ENE 8 9 1018.6 - - - - - - - - -
28/04:30pm 23.7 ENE 9 11 1018.4 - - - - - - - - -
28/04:00pm 24.0 ENE 10 11 1018.2 - - - - - - - - -
28/03:30pm 24.3 ENE 10 11 1018.3 - - - - - - - - -
28/03:00pm 24.4 ENE 10 11 1018.5 - - - - - - - - -
28/02:30pm 24.5 ENE 10 11 1018.6 - - - - - - - - -
28/02:00pm 24.6 E 10 12 1018.9 - - - - - - - - -
28/01:30pm 24.6 E 11 13 1019.3 - - - - - - - - -

Other Formats:

Comma delimited format used in spreadsheet applications
http://www.bom.gov.au/fwo/IDW60701/IDW60701.94307.axf

JavaScript Object Notation format (JSON) in row-major order
http://www.bom.gov.au/fwo/IDW60701/IDW60701.94307.json